Glenoma, WA (98336)

10:20 AM PST on February 13, 2016 (GMT -0800)
Lost Creek | | Change Station
CLOSE
Current Station
Personal Weather Station
Location: Glenoma, WA
Elevation: 1119 ft
Nearby Weather Stations
Active Advisory: Winter Weather Advisory

Elev 1119 ft 46.54 °N, 122.06 °W | Updated 4 seconds ago

Partly Cloudy
Partly Cloudy
45.3 °F
Feels Like 45 °F
N
0.0
Wind Variable Wind from NE
Gusts 0.0 mph

Today
High -- | Low -- °F
--% Chance of Precip.
Yesterday
High -- | Low -- °F
Precip. -- in
Pressure 30.28 in
Visibility 10.0 miles
Clouds Clear
Windchill 45 °F
Dew Point 44 °F
Humidity 96%
Rainfall 0.13 in
Snow Depth Not available.
7:15 AM 5:30 PM
Waxing Crescent, 33% visible
METAR KPLU 131755Z AUTO 18006KT 10SM CLR 09/05 A3028 RMK AO2
Pressure 30.28 in
Visibility 10.0 miles
Clouds Clear
Windchill 45 °F
Dew Point 44 °F
Humidity 96%
Rainfall 0.13 in
Snow Depth Not available.
7:15 AM 5:30 PM
Waxing Crescent, 33% visible
METAR KPLU 131755Z AUTO 18006KT 10SM CLR 09/05 A3028 RMK AO2

10-Day Weather Forecast

Almanac

Astronomy

Feb. 13, 2016 Rise Set
Actual Time
Civil Twilight
Nautical Twilight
Astronomical Twilight
Moon
Length of Visible Light
Length of Day
Tomorrow will be .
, % of the Moon is Illuminated

Today's Extremes

State Highs State Lows

Community

WunderPhotos

Upload Photos

1,892,632 photos uploaded!

WunderBlog® & News

Nearby

Air Quality

  Air Quality AQ Index Pollutant
Not available.

Snow Depth

Station Depth Elevation

Earthquake Activity

City Distance Mag. Time & Date
Minimum magnitude displayed is 2.5.

Coastal Water Temperatures

Place Temperature

Stations

Nearby Weather Stations

Station Location Temp. Windchill Dew Point Humidity Wind Precip. Elev Updated Type
                   

Watches & Warnings

Winter Weather Advisory
Issued: 3:53 AM PST Feb. 13, 2016 – National Weather Service

... Winter Weather Advisory in effect from 4 PM this afternoon to
10 am PST Sunday for locations above 5000 ft...

The National Weather Service in Seattle has issued a Winter Weather
Advisory for snow... which is in effect from 4 PM this afternoon
to 10 am PST Sunday.

* Accumulations... 9 to 15 inches are possible above 5000 ft from
this afternoon through late Sunday morning.

* Some affected locations... Paradise and sunrise on Mt Rainier.

* Main impact... snow covered roads and reduced visibilities at
times.

Precautionary/preparedness actions...

A Winter Weather Advisory for snow means that periods of snow
will cause primarily travel difficulties. Be prepared for snow
covered roads and limited visibilities... and use caution while
driving.